sensor_id;sensor_type;location;lat;lon;timestamp;pressure;altitude;pressure_sealevel;temperature;humidity
22550;BME280;11441;57.164;-2.120;2022-09-03T00:00:54;100981.47;;;15.75;100.00
22550;BME280;11441;57.164;-2.120;2022-09-03T00:03:28;100973.84;;;15.68;100.00
22550;BME280;11441;57.164;-2.120;2022-09-03T00:06:13;100973.97;;;15.82;100.00
22550;BME280;11441;57.164;-2.120;2022-09-03T00:14:30;100967.66;;;15.86;100.00
22550;BME280;11441;57.164;-2.120;2022-09-03T00:17:02;100963.56;;;15.72;100.00
22550;BME280;11441;57.164;-2.120;2022-09-03T00:19:57;100958.94;;;15.83;100.00
22550;BME280;11441;57.164;-2.120;2022-09-03T00:22:32;100963.59;;;15.76;100.00
22550;BME280;11441;57.164;-2.120;2022-09-03T00:25:03;100956.88;;;15.77;100.00
22550;BME280;11441;57.164;-2.120;2022-09-03T00:28:34;100953.00;;;15.89;100.00
22550;BME280;11441;57.164;-2.120;2022-09-03T00:31:27;100953.34;;;15.80;100.00
22550;BME280;11441;57.164;-2.120;2022-09-03T00:33:59;100949.41;;;15.88;100.00
22550;BME280;11441;57.164;-2.120;2022-09-03T00:36:46;100947.81;;;15.83;100.00
22550;BME280;11441;57.164;-2.120;2022-09-03T00:39:16;100948.19;;;15.82;100.00
22550;BME280;11441;57.164;-2.120;2022-09-03T00:56:24;100927.44;;;15.72;100.00
22550;BME280;11441;57.164;-2.120;2022-09-03T01:01:35;100925.44;;;15.69;100.00
22550;BME280;11441;57.164;-2.120;2022-09-03T01:04:35;100934.59;;;15.70;100.00
22550;BME280;11441;57.164;-2.120;2022-09-03T01:15:12;100920.31;;;15.68;100.00
22550;BME280;11441;57.164;-2.120;2022-09-03T01:23:52;100907.97;;;15.65;100.00
22550;BME280;11441;57.164;-2.120;2022-09-03T01:26:34;100905.53;;;15.56;100.00
22550;BME280;11441;57.164;-2.120;2022-09-03T01:29:39;100914.22;;;15.55;100.00
22550;BME280;11441;57.164;-2.120;2022-09-03T01:32:23;100905.47;;;15.49;100.00
22550;BME280;11441;57.164;-2.120;2022-09-03T01:41:16;100904.31;;;15.54;100.00
22550;BME280;11441;57.164;-2.120;2022-09-03T01:46:40;100905.81;;;15.44;100.00
22550;BME280;11441;57.164;-2.120;2022-09-03T01:49:19;100906.56;;;15.41;100.00
22550;BME280;11441;57.164;-2.120;2022-09-03T01:52:08;100903.03;;;15.44;100.00
22550;BME280;11441;57.164;-2.120;2022-09-03T01:55:05;100905.31;;;15.31;100.00
22550;BME280;11441;57.164;-2.120;2022-09-03T02:00:12;100902.59;;;15.38;100.00
22550;BME280;11441;57.164;-2.120;2022-09-03T02:02:43;100887.50;;;15.36;100.00
22550;BME280;11441;57.164;-2.120;2022-09-03T02:05:25;100885.19;;;15.41;100.00
22550;BME280;11441;57.164;-2.120;2022-09-03T02:07:58;100887.63;;;15.46;100.00
22550;BME280;11441;57.164;-2.120;2022-09-03T02:10:40;100886.38;;;15.40;100.00
22550;BME280;11441;57.164;-2.120;2022-09-03T02:15:50;100895.81;;;15.32;100.00
22550;BME280;11441;57.164;-2.120;2022-09-03T02:18:28;100886.28;;;15.30;100.00
22550;BME280;11441;57.164;-2.120;2022-09-03T02:20:57;100889.50;;;15.35;100.00
22550;BME280;11441;57.164;-2.120;2022-09-03T02:23:26;100890.19;;;15.25;100.00
22550;BME280;11441;57.164;-2.120;2022-09-03T02:25:56;100888.28;;;15.33;100.00
22550;BME280;11441;57.164;-2.120;2022-09-03T02:28:27;100883.56;;;15.37;100.00
22550;BME280;11441;57.164;-2.120;2022-09-03T02:30:54;100885.53;;;15.33;100.00
22550;BME280;11441;57.164;-2.120;2022-09-03T02:33:23;100870.81;;;15.32;100.00
22550;BME280;11441;57.164;-2.120;2022-09-03T02:35:50;100873.94;;;15.27;100.00
22550;BME280;11441;57.164;-2.120;2022-09-03T02:38:20;100874.75;;;15.24;100.00
22550;BME280;11441;57.164;-2.120;2022-09-03T02:40:47;100865.25;;;15.28;100.00
22550;BME280;11441;57.164;-2.120;2022-09-03T02:43:30;100879.19;;;15.36;100.00
22550;BME280;11441;57.164;-2.120;2022-09-03T02:46:02;100867.66;;;15.30;100.00
22550;BME280;11441;57.164;-2.120;2022-09-03T02:48:30;100867.66;;;15.30;100.00
22550;BME280;11441;57.164;-2.120;2022-09-03T02:50:57;100866.78;;;15.22;100.00
22550;BME280;11441;57.164;-2.120;2022-09-03T02:53:24;100858.16;;;15.31;100.00
22550;BME280;11441;57.164;-2.120;2022-09-03T02:55:59;100856.56;;;15.34;100.00
22550;BME280;11441;57.164;-2.120;2022-09-03T02:58:44;100860.97;;;15.38;100.00
22550;BME280;11441;57.164;-2.120;2022-09-03T03:01:11;100857.34;;;15.34;100.00
22550;BME280;11441;57.164;-2.120;2022-09-03T03:03:52;100870.03;;;15.32;100.00
22550;BME280;11441;57.164;-2.120;2022-09-03T03:06:19;100870.78;;;15.28;100.00
22550;BME280;11441;57.164;-2.120;2022-09-03T03:08:47;100866.81;;;15.26;100.00
22550;BME280;11441;57.164;-2.120;2022-09-03T03:11:33;100864.16;;;15.40;100.00
22550;BME280;11441;57.164;-2.120;2022-09-03T03:14:02;100862.63;;;15.46;100.00
22550;BME280;11441;57.164;-2.120;2022-09-03T03:16:29;100861.78;;;15.39;100.00
22550;BME280;11441;57.164;-2.120;2022-09-03T03:18:56;100869.97;;;15.24;100.00
22550;BME280;11441;57.164;-2.120;2022-09-03T03:21:24;100862.59;;;15.43;100.00
22550;BME280;11441;57.164;-2.120;2022-09-03T03:24:10;100862.19;;;15.44;100.00
22550;BME280;11441;57.164;-2.120;2022-09-03T03:26:37;100861.81;;;15.46;100.00
22550;BME280;11441;57.164;-2.120;2022-09-03T03:29:04;100857.78;;;15.36;100.00
22550;BME280;11441;57.164;-2.120;2022-09-03T03:31:31;100854.38;;;15.54;100.00
22550;BME280;11441;57.164;-2.120;2022-09-03T03:34:02;100834.84;;;15.43;100.00
22550;BME280;11441;57.164;-2.120;2022-09-03T03:36:31;100850.78;;;15.53;100.00
22550;BME280;11441;57.164;-2.120;2022-09-03T03:38:59;100845.56;;;15.44;100.00
22550;BME280;11441;57.164;-2.120;2022-09-03T03:41:29;100841.59;;;15.45;100.00
22550;BME280;11441;57.164;-2.120;2022-09-03T03:43:59;100841.16;;;15.36;100.00
22550;BME280;11441;57.164;-2.120;2022-09-03T03:46:35;100843.06;;;15.28;100.00
22550;BME280;11441;57.164;-2.120;2022-09-03T03:49:03;100833.97;;;15.32;100.00
22550;BME280;11441;57.164;-2.120;2022-09-03T03:51:33;100845.94;;;15.43;100.00
22550;BME280;11441;57.164;-2.120;2022-09-03T03:54:03;100841.59;;;15.42;100.00
22550;BME280;11441;57.164;-2.120;2022-09-03T03:56:32;100843.97;;;15.43;100.00
22550;BME280;11441;57.164;-2.120;2022-09-03T03:58:59;100842.69;;;15.34;100.00
22550;BME280;11441;57.164;-2.120;2022-09-03T04:01:27;100843.50;;;15.38;100.00
22550;BME280;11441;57.164;-2.120;2022-09-03T04:03:56;100836.00;;;15.38;100.00
22550;BME280;11441;57.164;-2.120;2022-09-03T04:06:24;100839.91;;;15.34;100.00
22550;BME280;11441;57.164;-2.120;2022-09-03T04:08:53;100842.75;;;15.41;100.00
22550;BME280;11441;57.164;-2.120;2022-09-03T04:11:21;100839.97;;;15.41;100.00
22550;BME280;11441;57.164;-2.120;2022-09-03T04:13:49;100834.84;;;15.43;100.00
22550;BME280;11441;57.164;-2.120;2022-09-03T04:16:25;100837.19;;;15.41;100.00
22550;BME280;11441;57.164;-2.120;2022-09-03T04:18:53;100843.16;;;15.43;100.00
22550;BME280;11441;57.164;-2.120;2022-09-03T04:21:28;100840.78;;;15.41;100.00
22550;BME280;11441;57.164;-2.120;2022-09-03T04:23:56;100843.16;;;15.43;100.00
22550;BME280;11441;57.164;-2.120;2022-09-03T04:26:43;100836.78;;;15.39;100.00
22550;BME280;11441;57.164;-2.120;2022-09-03T04:29:10;100840.25;;;15.25;100.00
22550;BME280;11441;57.164;-2.120;2022-09-03T04:31:37;100838.34;;;15.33;100.00
22550;BME280;11441;57.164;-2.120;2022-09-03T04:34:05;100839.91;;;15.30;100.00
22550;BME280;11441;57.164;-2.120;2022-09-03T04:36:32;100842.28;;;15.32;100.00
22550;BME280;11441;57.164;-2.120;2022-09-03T04:39:01;100833.53;;;15.26;100.00
22550;BME280;11441;57.164;-2.120;2022-09-03T04:41:29;100840.25;;;15.25;100.00
22550;BME280;11441;57.164;-2.120;2022-09-03T04:43:58;100837.91;;;15.31;100.00
22550;BME280;11441;57.164;-2.120;2022-09-03T04:46:44;100833.59;;;15.33;100.00
22550;BME280;11441;57.164;-2.120;2022-09-03T04:49:13;100839.50;;;15.32;100.00
22550;BME280;11441;57.164;-2.120;2022-09-03T04:51:41;100833.94;;;15.28;100.00
22550;BME280;11441;57.164;-2.120;2022-09-03T04:54:09;100833.56;;;15.30;100.00
22550;BME280;11441;57.164;-2.120;2022-09-03T04:56:37;100827.63;;;15.31;100.00
22550;BME280;11441;57.164;-2.120;2022-09-03T04:59:07;100833.25;;;15.42;100.00
22550;BME280;11441;57.164;-2.120;2022-09-03T05:01:37;100830.06;;;15.36;100.00
22550;BME280;11441;57.164;-2.120;2022-09-03T05:04:05;100828.47;;;15.39;100.00
22550;BME280;11441;57.164;-2.120;2022-09-03T05:06:34;100819.75;;;15.40;100.00
22550;BME280;11441;57.164;-2.120;2022-09-03T05:09:03;100821.72;;;15.36;100.00
22550;BME280;11441;57.164;-2.120;2022-09-03T05:11:30;100816.19;;;15.40;100.00
22550;BME280;11441;57.164;-2.120;2022-09-03T05:13:58;100813.41;;;15.40;100.00
22550;BME280;11441;57.164;-2.120;2022-09-03T05:16:26;100826.50;;;15.43;100.00
22550;BME280;11441;57.164;-2.120;2022-09-03T05:19:12;100810.25;;;15.41;100.00
22550;BME280;11441;57.164;-2.120;2022-09-03T05:21:39;100810.25;;;15.41;100.00
22550;BME280;11441;57.164;-2.120;2022-09-03T05:24:06;100812.63;;;15.43;100.00
22550;BME280;11441;57.164;-2.120;2022-09-03T05:26:37;100819.78;;;15.44;100.00
22550;BME280;11441;57.164;-2.120;2022-09-03T05:29:23;100808.72;;;15.51;100.00
22550;BME280;11441;57.164;-2.120;2022-09-03T05:31:51;100818.19;;;15.43;100.00
22550;BME280;11441;57.164;-2.120;2022-09-03T05:34:17;100824.56;;;15.47;100.00
22550;BME280;11441;57.164;-2.120;2022-09-03T05:36:46;100819.44;;;15.53;100.00
22550;BME280;11441;57.164;-2.120;2022-09-03T05:39:15;100826.22;;;15.55;100.00
22550;BME280;11441;57.164;-2.120;2022-09-03T05:41:42;100827.00;;;15.52;100.00
22550;BME280;11441;57.164;-2.120;2022-09-03T05:44:09;100832.53;;;15.52;100.00
22550;BME280;11441;57.164;-2.120;2022-09-03T05:46:36;100828.56;;;15.53;100.00
22550;BME280;11441;57.164;-2.120;2022-09-03T05:49:04;100820.69;;;15.59;100.00
22550;BME280;11441;57.164;-2.120;2022-09-03T05:51:33;100822.72;;;15.69;100.00
22550;BME280;11441;57.164;-2.120;2022-09-03T05:54:00;100827.88;;;15.67;100.00
22550;BME280;11441;57.164;-2.120;2022-09-03T05:56:29;100813.59;;;15.69;100.00
22550;BME280;11441;57.164;-2.120;2022-09-03T05:58:58;100822.81;;;15.76;100.00
22550;BME280;11441;57.164;-2.120;2022-09-03T06:01:33;100836.66;;;15.73;100.00
22550;BME280;11441;57.164;-2.120;2022-09-03T06:04:03;100839.50;;;15.80;100.00
22550;BME280;11441;57.164;-2.120;2022-09-03T06:06:33;100837.94;;;15.86;100.00
22550;BME280;11441;57.164;-2.120;2022-09-03T06:09:05;100832.78;;;15.88;100.00
22550;BME280;11441;57.164;-2.120;2022-09-03T06:11:34;100834.25;;;15.71;100.00
22550;BME280;11441;57.164;-2.120;2022-09-03T06:14:02;100835.53;;;15.84;100.00
22550;BME280;11441;57.164;-2.120;2022-09-03T06:16:50;100838.31;;;15.84;100.00
22550;BME280;11441;57.164;-2.120;2022-09-03T06:19:18;100836.75;;;15.87;100.00
22550;BME280;11441;57.164;-2.120;2022-09-03T06:21:46;100841.91;;;15.85;100.00
22550;BME280;11441;57.164;-2.120;2022-09-03T06:24:19;100838.75;;;15.90;100.00
22550;BME280;11441;57.164;-2.120;2022-09-03T06:26:55;100832.78;;;15.92;100.00
22550;BME280;11441;57.164;-2.120;2022-09-03T06:29:23;100832.78;;;15.88;100.00
22550;BME280;11441;57.164;-2.120;2022-09-03T06:31:49;100843.09;;;15.88;100.00
22550;BME280;11441;57.164;-2.120;2022-09-03T06:34:16;100837.53;;;15.88;100.00
22550;BME280;11441;57.164;-2.120;2022-09-03T06:36:48;100839.91;;;15.82;100.00
22550;BME280;11441;57.164;-2.120;2022-09-03T06:39:15;100836.75;;;15.83;100.00
22550;BME280;11441;57.164;-2.120;2022-09-03T06:41:41;100843.50;;;15.90;100.00
22550;BME280;11441;57.164;-2.120;2022-09-03T06:44:10;100847.81;;;15.80;100.00
22550;BME280;11441;57.164;-2.120;2022-09-03T06:46:39;100849.06;;;15.93;100.00
22550;BME280;11441;57.164;-2.120;2022-09-03T06:49:28;100851.03;;;15.86;100.00
22550;BME280;11441;57.164;-2.120;2022-09-03T06:51:57;100849.44;;;15.88;100.00
22550;BME280;11441;57.164;-2.120;2022-09-03T06:54:24;100850.19;;;15.78;100.00
22550;BME280;11441;57.164;-2.120;2022-09-03T06:56:51;100853.41;;;15.87;100.00
22550;BME280;11441;57.164;-2.120;2022-09-03T06:59:18;100855.13;;;16.10;100.00
22550;BME280;11441;57.164;-2.120;2022-09-03T07:01:45;100851.84;;;15.93;100.00
22550;BME280;11441;57.164;-2.120;2022-09-03T07:04:14;100842.78;;;16.00;100.00
22550;BME280;11441;57.164;-2.120;2022-09-03T07:06:45;100851.13;;;16.03;100.00
22550;BME280;11441;57.164;-2.120;2022-09-03T07:09:13;100852.34;;;16.06;100.00
22550;BME280;11441;57.164;-2.120;2022-09-03T07:12:00;100862.31;;;16.18;100.00
22550;BME280;11441;57.164;-2.120;2022-09-03T07:14:28;100853.56;;;16.16;100.00
22550;BME280;11441;57.164;-2.120;2022-09-03T07:16:55;100852.41;;;16.24;100.00
22550;BME280;11441;57.164;-2.120;2022-09-03T07:19:21;100850.38;;;16.14;100.00
22550;BME280;11441;57.164;-2.120;2022-09-03T07:21:48;100852.44;;;16.31;100.00
22550;BME280;11441;57.164;-2.120;2022-09-03T07:24:18;100849.28;;;16.36;100.00
22550;BME280;11441;57.164;-2.120;2022-09-03T07:26:45;100848.91;;;16.38;100.00
22550;BME280;11441;57.164;-2.120;2022-09-03T07:29:14;100848.94;;;16.49;100.00
22550;BME280;11441;57.164;-2.120;2022-09-03T07:31:47;100850.94;;;16.48;100.00
22550;BME280;11441;57.164;-2.120;2022-09-03T07:34:19;100843.41;;;16.56;100.00
22550;BME280;11441;57.164;-2.120;2022-09-03T07:36:48;100854.94;;;16.58;100.00
22550;BME280;11441;57.164;-2.120;2022-09-03T07:39:17;100846.59;;;16.58;100.00
22550;BME280;11441;57.164;-2.120;2022-09-03T07:42:02;100837.84;;;16.56;100.00
22550;BME280;11441;57.164;-2.120;2022-09-03T07:44:29;100846.63;;;16.65;100.00
22550;BME280;11441;57.164;-2.120;2022-09-03T07:46:56;100852.97;;;16.62;100.00
22550;BME280;11441;57.164;-2.120;2022-09-03T07:49:23;100844.22;;;16.60;100.00
22550;BME280;11441;57.164;-2.120;2022-09-03T07:51:51;100842.22;;;16.61;100.00
22550;BME280;11441;57.164;-2.120;2022-09-03T07:54:20;100840.22;;;16.61;100.00
22550;BME280;11441;57.164;-2.120;2022-09-03T07:56:51;100844.59;;;16.58;100.00
22550;BME280;11441;57.164;-2.120;2022-09-03T07:59:18;100841.06;;;16.65;100.00
22550;BME280;11441;57.164;-2.120;2022-09-03T08:01:48;100841.47;;;16.74;100.00
22550;BME280;11441;57.164;-2.120;2022-09-03T08:04:16;100857.31;;;16.63;100.00
22550;BME280;11441;57.164;-2.120;2022-09-03T08:06:47;100851.34;;;16.61;100.00
22550;BME280;11441;57.164;-2.120;2022-09-03T08:09:15;100856.16;;;16.68;100.00
22550;BME280;11441;57.164;-2.120;2022-09-03T08:11:42;100853.75;;;16.63;100.00
22550;BME280;11441;57.164;-2.120;2022-09-03T08:14:11;100850.56;;;16.64;100.00
22550;BME280;11441;57.164;-2.120;2022-09-03T08:16:42;100860.94;;;16.71;100.00
22550;BME280;11441;57.164;-2.120;2022-09-03T08:19:09;100856.94;;;16.68;100.00
22550;BME280;11441;57.164;-2.120;2022-09-03T08:21:37;100849.41;;;16.72;100.00
22550;BME280;11441;57.164;-2.120;2022-09-03T08:24:08;100852.97;;;16.69;100.00
22550;BME280;11441;57.164;-2.120;2022-09-03T08:26:39;100851.38;;;16.72;100.00
22550;BME280;11441;57.164;-2.120;2022-09-03T08:29:08;100849.44;;;16.80;100.00
22550;BME280;11441;57.164;-2.120;2022-09-03T08:31:37;100844.69;;;16.91;100.00
22550;BME280;11441;57.164;-2.120;2022-09-03T08:34:21;100853.88;;;17.02;100.00
22550;BME280;11441;57.164;-2.120;2022-09-03T08:36:49;100860.53;;;16.80;100.00
22550;BME280;11441;57.164;-2.120;2022-09-03T08:39:17;100846.63;;;16.72;100.00
22550;BME280;11441;57.164;-2.120;2022-09-03T08:41:55;100854.97;;;16.76;100.00
22550;BME280;11441;57.164;-2.120;2022-09-03T08:44:50;100846.69;;;17.01;100.00
22550;BME280;11441;57.164;-2.120;2022-09-03T08:55:32;100855.75;;;16.76;100.00
22550;BME280;11441;57.164;-2.120;2022-09-03T09:16:58;100864.94;;;17.85;100.00
22550;BME280;11441;57.164;-2.120;2022-09-03T09:19:40;100856.59;;;17.85;100.00
22550;BME280;11441;57.164;-2.120;2022-09-03T09:22:34;100856.59;;;17.81;100.00
22550;BME280;11441;57.164;-2.120;2022-09-03T09:25:13;100850.22;;;17.99;100.00
22550;BME280;11441;57.164;-2.120;2022-09-03T09:28:03;100865.75;;;18.07;100.00
22550;BME280;11441;57.164;-2.120;2022-09-03T09:30:35;100860.97;;;18.00;100.00
22550;BME280;11441;57.164;-2.120;2022-09-03T09:33:03;100874.88;;;18.11;100.00
22550;BME280;11441;57.164;-2.120;2022-09-03T09:35:30;100867.34;;;18.08;100.00
22550;BME280;11441;57.164;-2.120;2022-09-03T09:37:57;100862.56;;;18.08;100.00
22550;BME280;11441;57.164;-2.120;2022-09-03T09:40:29;100864.09;;;18.27;100.00
22550;BME280;11441;57.164;-2.120;2022-09-03T09:45:37;100856.59;;;18.10;100.00
22550;BME280;11441;57.164;-2.120;2022-09-03T09:48:37;100854.19;;;18.08;100.00
22550;BME280;11441;57.164;-2.120;2022-09-03T09:51:17;100848.25;;;17.99;100.00
22550;BME280;11441;57.164;-2.120;2022-09-03T09:53:45;100867.75;;;17.88;100.00
22550;BME280;11441;57.164;-2.120;2022-09-03T09:56:23;100846.22;;;18.07;100.00
22550;BME280;11441;57.164;-2.120;2022-09-03T09:59:11;100871.25;;;18.21;100.00
22550;BME280;11441;57.164;-2.120;2022-09-03T10:01:40;100870.81;;;18.30;100.00
22550;BME280;11441;57.164;-2.120;2022-09-03T10:06:39;100862.41;;;18.48;100.00
22550;BME280;11441;57.164;-2.120;2022-09-03T10:09:27;100865.94;;;18.59;100.00
22550;BME280;11441;57.164;-2.120;2022-09-03T10:14:31;100864.38;;;18.47;100.00
22550;BME280;11441;57.164;-2.120;2022-09-03T10:17:40;100867.53;;;18.57;100.00
22550;BME280;11441;57.164;-2.120;2022-09-03T10:23:22;100869.50;;;18.67;100.00
22550;BME280;11441;57.164;-2.120;2022-09-03T10:28:59;100866.66;;;18.74;100.00
22550;BME280;11441;57.164;-2.120;2022-09-03T10:45:12;100873.03;;;18.75;100.00
22550;BME280;11441;57.164;-2.120;2022-09-03T10:50:33;100872.22;;;18.78;100.00
22550;BME280;11441;57.164;-2.120;2022-09-03T11:05:21;100880.13;;;18.94;100.00
22550;BME280;11441;57.164;-2.120;2022-09-03T11:07:57;100871.22;;;19.10;100.00
22550;BME280;11441;57.164;-2.120;2022-09-03T11:10:31;100873.00;;;18.78;100.00
22550;BME280;11441;57.164;-2.120;2022-09-03T11:15:35;100873.66;;;19.08;100.00
22550;BME280;11441;57.164;-2.120;2022-09-03T11:21:01;100883.75;;;18.83;100.00
22550;BME280;11441;57.164;-2.120;2022-09-03T11:23:41;100873.78;;;18.90;100.00
22550;BME280;11441;57.164;-2.120;2022-09-03T11:26:14;100877.63;;;19.07;100.00
22550;BME280;11441;57.164;-2.120;2022-09-03T11:29:00;100880.38;;;19.14;100.00
22550;BME280;11441;57.164;-2.120;2022-09-03T11:31:58;100874.09;;;19.02;100.00
22550;BME280;11441;57.164;-2.120;2022-09-03T11:34:52;100873.97;;;19.17;100.00
22550;BME280;11441;57.164;-2.120;2022-09-03T11:37:24;100875.34;;;18.91;100.00
22550;BME280;11441;57.164;-2.120;2022-09-03T11:42:35;100875.56;;;19.18;100.00
22550;BME280;11441;57.164;-2.120;2022-09-03T11:45:20;100860.44;;;19.12;100.00
22550;BME280;11441;57.164;-2.120;2022-09-03T11:47:48;100867.03;;;19.36;100.00
22550;BME280;11441;57.164;-2.120;2022-09-03T11:52:50;100860.53;;;19.50;100.00
22550;BME280;11441;57.164;-2.120;2022-09-03T11:55:26;100860.78;;;19.25;100.00
22550;BME280;11441;57.164;-2.120;2022-09-03T11:58:32;100861.81;;;19.41;100.00
22550;BME280;11441;57.164;-2.120;2022-09-03T12:01:03;100861.22;;;19.12;100.00
22550;BME280;11441;57.164;-2.120;2022-09-03T12:17:58;100853.50;;;18.75;100.00
22550;BME280;11441;57.164;-2.120;2022-09-03T12:20:45;100872.63;;;18.76;100.00
22550;BME280;11441;57.164;-2.120;2022-09-03T12:23:13;100867.03;;;18.83;100.00
22550;BME280;11441;57.164;-2.120;2022-09-03T12:26:07;100869.81;;;18.80;100.00
22550;BME280;11441;57.164;-2.120;2022-09-03T12:28:36;100869.78;;;18.87;100.00
22550;BME280;11441;57.164;-2.120;2022-09-03T12:31:18;100866.16;;;18.94;100.00
22550;BME280;11441;57.164;-2.120;2022-09-03T12:36:21;100874.09;;;19.02;100.00
22550;BME280;11441;57.164;-2.120;2022-09-03T12:38:49;100873.38;;;18.84;100.00
22550;BME280;11441;57.164;-2.120;2022-09-03T12:41:36;100889.28;;;18.91;100.00
22550;BME280;11441;57.164;-2.120;2022-09-03T12:44:04;100876.56;;;18.86;100.00
22550;BME280;11441;57.164;-2.120;2022-09-03T12:46:32;100886.59;;;18.73;100.00
22550;BME280;11441;57.164;-2.120;2022-09-03T12:49:04;100881.34;;;18.86;100.00
22550;BME280;11441;57.164;-2.120;2022-09-03T12:52:07;100865.38;;;18.93;100.00
22550;BME280;11441;57.164;-2.120;2022-09-03T12:57:30;100872.19;;;18.81;100.00
22550;BME280;11441;57.164;-2.120;2022-09-03T13:00:18;100868.94;;;18.94;100.00
22550;BME280;11441;57.164;-2.120;2022-09-03T13:05:55;100880.06;;;19.01;100.00
22550;BME280;11441;57.164;-2.120;2022-09-03T13:08:30;100879.63;;;19.06;100.00
22550;BME280;11441;57.164;-2.120;2022-09-03T13:11:00;100870.50;;;19.02;100.00
22550;BME280;11441;57.164;-2.120;2022-09-03T13:13:32;100875.72;;;18.93;100.00
22550;BME280;11441;57.164;-2.120;2022-09-03T13:16:04;100884.81;;;19.08;100.00
22550;BME280;11441;57.164;-2.120;2022-09-03T13:18:36;100889.47;;;19.25;100.00
22550;BME280;11441;57.164;-2.120;2022-09-03T13:21:35;100885.94;;;19.14;100.00
22550;BME280;11441;57.164;-2.120;2022-09-03T13:27:37;100876.06;;;19.06;100.00
22550;BME280;11441;57.164;-2.120;2022-09-03T13:30:14;100865.94;;;18.59;100.00
22550;BME280;11441;57.164;-2.120;2022-09-03T13:32:58;100878.94;;;18.88;100.00
22550;BME280;11441;57.164;-2.120;2022-09-03T13:41:07;100873.31;;;18.98;100.00
22550;BME280;11441;57.164;-2.120;2022-09-03T13:43:42;100878.56;;;18.86;100.00
22550;BME280;11441;57.164;-2.120;2022-09-03T13:46:16;100872.09;;;18.99;100.00
22550;BME280;11441;57.164;-2.120;2022-09-03T13:49:11;100884.19;;;18.75;100.00
22550;BME280;11441;57.164;-2.120;2022-09-03T13:52:04;100886.19;;;18.71;100.00
22550;BME280;11441;57.164;-2.120;2022-09-03T13:54:40;100882.38;;;18.39;100.00
22550;BME280;11441;57.164;-2.120;2022-09-03T13:57:38;100878.53;;;18.89;100.00
22550;BME280;11441;57.164;-2.120;2022-09-03T14:00:13;100874.97;;;18.89;100.00
22550;BME280;11441;57.164;-2.120;2022-09-03T14:08:56;100869.00;;;18.87;100.00
22550;BME280;11441;57.164;-2.120;2022-09-03T14:11:47;100863.81;;;18.89;100.00
22550;BME280;11441;57.164;-2.120;2022-09-03T14:14:33;100872.53;;;18.94;100.00
22550;BME280;11441;57.164;-2.120;2022-09-03T14:24:56;100861.94;;;19.27;100.00
22550;BME280;11441;57.164;-2.120;2022-09-03T14:27:31;100862.91;;;19.02;100.00
22550;BME280;11441;57.164;-2.120;2022-09-03T14:35:30;100865.41;;;18.90;100.00
22550;BME280;11441;57.164;-2.120;2022-09-03T14:50:04;100858.00;;;18.51;100.00
22550;BME280;11441;57.164;-2.120;2022-09-03T14:53:45;100861.59;;;18.47;100.00
22550;BME280;11441;57.164;-2.120;2022-09-03T14:56:25;100859.88;;;18.72;100.00
22550;BME280;11441;57.164;-2.120;2022-09-03T15:12:36;100841.34;;;18.36;100.00
22550;BME280;11441;57.164;-2.120;2022-09-03T15:21:32;100850.00;;;18.56;100.00
22550;BME280;11441;57.164;-2.120;2022-09-03T15:30:08;100843.66;;;18.52;100.00
22550;BME280;11441;57.164;-2.120;2022-09-03T15:38:43;100839.53;;;18.78;100.00
22550;BME280;11441;57.164;-2.120;2022-09-03T15:41:29;100849.63;;;18.54;100.00
22550;BME280;11441;57.164;-2.120;2022-09-03T15:43:59;100843.09;;;18.79;100.00
22550;BME280;11441;57.164;-2.120;2022-09-03T15:46:34;100850.13;;;18.31;100.00
22550;BME280;11441;57.164;-2.120;2022-09-03T15:49:09;100847.22;;;18.56;100.00
22550;BME280;11441;57.164;-2.120;2022-09-03T15:52:01;100851.03;;;18.88;100.00
22550;BME280;11441;57.164;-2.120;2022-09-03T15:55:41;100842.44;;;18.60;100.00
22550;BME280;11441;57.164;-2.120;2022-09-03T16:01:43;100855.16;;;18.61;100.00
22550;BME280;11441;57.164;-2.120;2022-09-03T16:07:02;100851.44;;;18.86;100.00
22550;BME280;11441;57.164;-2.120;2022-09-03T16:13:19;100848.59;;;19.00;100.00
22550;BME280;11441;57.164;-2.120;2022-09-03T16:16:13;100847.16;;;18.63;100.00
22550;BME280;11441;57.164;-2.120;2022-09-03T16:22:16;100840.50;;;18.46;100.00
22550;BME280;11441;57.164;-2.120;2022-09-03T16:25:06;100846.06;;;18.50;100.00
22550;BME280;11441;57.164;-2.120;2022-09-03T16:27:43;100835.38;;;18.38;100.00
22550;BME280;11441;57.164;-2.120;2022-09-03T16:33:48;100847.72;;;18.33;100.00
22550;BME280;11441;57.164;-2.120;2022-09-03T16:39:18;100846.13;;;18.32;100.00
22550;BME280;11441;57.164;-2.120;2022-09-03T16:44:32;100846.56;;;18.20;100.00
22550;BME280;11441;57.164;-2.120;2022-09-03T16:53:19;100845.81;;;18.16;100.00
22550;BME280;11441;57.164;-2.120;2022-09-03T16:55:59;100850.94;;;18.28;100.00
22550;BME280;11441;57.164;-2.120;2022-09-03T16:58:49;100848.19;;;18.17;100.00
22550;BME280;11441;57.164;-2.120;2022-09-03T17:04:05;100851.84;;;18.00;100.00
22550;BME280;11441;57.164;-2.120;2022-09-03T17:09:41;100853.84;;;17.96;100.00
22550;BME280;11441;57.164;-2.120;2022-09-03T17:12:47;100854.63;;;17.85;100.00
22550;BME280;11441;57.164;-2.120;2022-09-03T17:15:24;100851.47;;;17.65;100.00
22550;BME280;11441;57.164;-2.120;2022-09-03T17:18:25;100858.66;;;17.59;100.00
22550;BME280;11441;57.164;-2.120;2022-09-03T17:21:15;100858.63;;;17.77;100.00
22550;BME280;11441;57.164;-2.120;2022-09-03T17:30:06;100856.66;;;17.56;100.00
22550;BME280;11441;57.164;-2.120;2022-09-03T17:36:00;100861.81;;;17.36;100.00
22550;BME280;11441;57.164;-2.120;2022-09-03T17:41:44;100862.22;;;17.31;100.00
22550;BME280;11441;57.164;-2.120;2022-09-03T17:47:51;100872.97;;;17.29;100.00